Мюнхен, Германия

23 10, 2014 09:56 CEST (GMT +0200)
Emeranbogen | Change Station
CLOSE
Current Station
Личная Метеорологическая Станция
Location: Feldkirchen, BAVARIA
Высота над уровнем моря: 1719 ft
Ближайшие Погодные Станции

В.н.у.м. 1719 ft 48.15 °N, 11.74 °E | Updated 58 seconds ago

Overcast
Пасмурно
44.2 °F
Ощущается Как 44 °F
С
2.9
Ветер переменчевый Ветер от Восточный
Gusts 3.8 миль/ч

Сегодня
Высокий -- | Низкий -- °F
--% Вероятн. осадков
Вчера
Высокий -- | Низкий -- °F
Precip. -- дюймов
7:44 AM 6:10 PM
Убывающий полумесяц, 0% visible
Давление 30.09 дюймов
Видимость 6.2 милиь
Облачность Пасмурно 1400 ft
Температура с учетом ветра 44 °F
Точка Росы 39 °F
Влажность воздуха 82%
Дождь 0.00 дюймов
Глубина снега Нет в наличии.
УФ 0.0 из 12
Пыльца Нет в наличии.
Качество воздуха Нет в наличии.
Flu Activity Нет в наличии.
METAR EDDM 230750Z 31018KT 9999 OVC014 07/05 Q1019 NOSIG

More Conditions Fewer Conditions

Давление 30.09 дюймов
Видимость 6.2 милиь
Облачность Пасмурно 1400 ft
Температура с учетом ветра 44 °F
Точка Росы 39 °F
Влажность воздуха 82%
Дождь 0.00 дюймов
Глубина снега Нет в наличии.
УФ 0.0 из 12
Пыльца Нет в наличии.
Качество воздуха Нет в наличии.
Flu Activity Нет в наличии.
METAR EDDM 230750Z 31018KT 9999 OVC014 07/05 Q1019 NOSIG

More Conditions Fewer Conditions

10-Day Weather Forecast

Almanac

Астрономические явления

Oct. 23, 2014 Восход Закат
Настоящее время 7:44 AM CEST 6:10 PM CEST
Гражданские сумерки 7:12 AM CEST 6:41 PM CEST
Навигационные сумерки 6:36 AM CEST 7:18 PM CEST
Астрономические сумерки 6:00 AM CEST 7:54 PM CEST
Луна 7:04 AM CEST 6:02 PM CEST
Длительность светового времени 11h 29m
Продолжительность Дня
10h 25m
Tomorrow will be 3m 18s shorter.
Убывающий полумесяц, 0% of the Moon is Illuminated
Сегодня
Убывающий полумесяц
Окт 23
Новая
Окт 30
Первая четверть
Нояб 6
Полнолуние
Нояб 14
Четвертая четверть

Вчерашние Экстремумы

Country Highs Country Lows

Community

WunderPhotos

Upload Photos

1,764,194 фотографии загружены!

Nearby

Качество воздуха

Not available.

Глубина Снега

Not available.

Сейсмическая активность

Город Distance Mag. Time & Date
No recent earthquake activity has been reported nearby.
Minimum magnitude displayed is 2.5.

Температура Прибрежных Вод

Место Температура
Нет зарегистрированных станций

Ближайшие Погодные Станции